createdAt,value
2023-05-04T03:47:06.216Z,832.40
2023-05-04T03:49:33.647Z,843.38
2023-05-04T03:52:00.328Z,836.33
2023-05-04T03:54:27.020Z,834.65
2023-05-04T03:56:53.646Z,841.38
2023-05-04T03:59:20.250Z,826.73
2023-05-04T04:01:46.834Z,836.15
2023-05-04T04:04:13.650Z,834.03
2023-05-04T04:06:42.679Z,828.90
2023-05-04T04:09:09.980Z,828.63
2023-05-04T04:11:36.621Z,825.28
2023-05-04T04:14:03.236Z,831.60
2023-05-04T04:16:29.906Z,835.00
2023-05-04T04:18:56.835Z,836.28
2023-05-04T04:21:23.490Z,843.53
2023-05-04T04:23:50.145Z,832.00
2023-05-04T04:26:16.792Z,843.42
2023-05-04T04:28:44.830Z,833.75
2023-05-04T04:31:11.485Z,829.07
2023-05-04T04:33:38.116Z,835.15
2023-05-04T04:36:04.781Z,840.58
2023-05-04T04:38:31.436Z,841.33
2023-05-04T04:40:58.038Z,836.78
2023-05-04T04:43:24.730Z,826.80
2023-05-04T04:45:53.717Z,836.97
2023-05-04T04:48:22.026Z,834.03
2023-05-04T04:50:48.691Z,831.97
2023-05-04T04:53:15.295Z,835.70
2023-05-04T04:55:41.989Z,834.88
2023-05-04T04:58:09.256Z,833.63
2023-05-04T05:00:36.597Z,838.60
2023-05-04T05:03:04.517Z,832.75
2023-05-04T05:05:31.834Z,831.92
2023-05-04T05:07:58.612Z,846.20
2023-05-04T05:10:25.193Z,832.43
2023-05-04T05:12:51.856Z,844.53
2023-05-04T05:15:18.622Z,837.03
2023-05-04T05:17:45.366Z,850.88
2023-05-04T05:20:12.433Z,836.53
2023-05-04T05:22:39.936Z,847.33
2023-05-04T05:25:07.588Z,843.40
2023-05-04T05:27:34.787Z,844.38
2023-05-04T05:30:03.350Z,847.70
2023-05-04T05:32:30.543Z,854.53
2023-05-04T05:34:57.489Z,859.27
2023-05-04T05:37:24.210Z,859.30
2023-05-04T05:39:51.125Z,862.53
2023-05-04T05:42:18.085Z,865.67
2023-05-04T05:44:44.760Z,882.80
2023-05-04T05:47:11.362Z,868.13
2023-05-04T05:49:38.104Z,897.17
2023-05-04T05:52:04.986Z,894.38
2023-05-04T05:54:32.466Z,891.40
2023-05-04T05:56:59.307Z,893.20
2023-05-04T05:59:25.953Z,893.92
2023-05-04T06:01:52.585Z,893.15
2023-05-04T06:04:19.314Z,899.22
2023-05-04T06:06:46.727Z,899.55
2023-05-04T06:09:13.413Z,900.42
2023-05-04T06:11:40.494Z,904.05
2023-05-04T06:14:07.118Z,909.72
2023-05-04T06:16:34.039Z,907.05
2023-05-04T06:19:00.861Z,912.03
2023-05-04T06:21:27.445Z,914.53
2023-05-04T06:23:54.026Z,909.92
2023-05-04T06:26:22.012Z,921.67
2023-05-04T06:28:48.617Z,913.55
2023-05-04T06:31:15.525Z,912.58
2023-05-04T06:33:42.245Z,917.35
2023-05-04T06:36:09.109Z,922.37
2023-05-04T06:38:37.885Z,925.28
2023-05-04T06:41:06.045Z,928.78
2023-05-04T06:43:33.497Z,930.13
2023-05-04T06:46:03.882Z,926.25
2023-05-04T06:48:31.509Z,930.05
2023-05-04T06:50:58.815Z,929.38
2023-05-04T06:53:26.786Z,940.13
2023-05-04T06:55:53.491Z,947.10
2023-05-04T06:58:21.681Z,942.75
2023-05-04T07:00:48.476Z,948.63
2023-05-04T07:03:15.225Z,951.53
2023-05-04T07:05:42.262Z,953.25
2023-05-04T07:08:10.043Z,967.13
2023-05-04T07:10:36.979Z,965.58
2023-05-04T07:13:03.950Z,965.15
2023-05-04T07:15:30.856Z,976.38
2023-05-04T07:17:57.484Z,971.93
2023-05-04T07:20:26.088Z,975.87
2023-05-04T07:22:56.406Z,978.22
2023-05-04T07:25:27.689Z,978.03
2023-05-04T07:27:54.607Z,983.55
2023-05-04T07:30:21.917Z,985.85
2023-05-04T07:32:48.915Z,986.08
2023-05-04T07:35:15.958Z,989.38
2023-05-04T07:37:42.570Z,994.80
2023-05-04T07:40:10.288Z,998.85
2023-05-04T07:42:37.097Z,996.65
2023-05-04T07:45:04.248Z,993.50
2023-05-04T07:47:30.990Z,1003.60
2023-05-04T07:49:57.672Z,1010.08
2023-05-04T07:52:24.352Z,1005.33
2023-05-04T07:54:54.573Z,1008.60
2023-05-04T07:57:21.821Z,1004.53
2023-05-04T07:59:48.540Z,1004.50
2023-05-04T08:02:15.794Z,1003.10
2023-05-04T08:04:42.604Z,1002.83
2023-05-04T08:07:09.316Z,1006.17
2023-05-04T08:09:35.945Z,1009.15
2023-05-04T08:12:04.387Z,1020.80
2023-05-04T08:14:31.131Z,1029.30
2023-05-04T08:16:57.761Z,1034.38
2023-05-04T08:19:24.519Z,1029.75
2023-05-04T08:21:51.227Z,1037.40
2023-05-04T08:24:18.310Z,1031.20
2023-05-04T08:26:49.546Z,1042.60
2023-05-04T08:29:22.758Z,1042.05
2023-05-04T08:31:49.645Z,1043.80
2023-05-04T08:34:16.495Z,1029.63
2023-05-04T08:36:43.165Z,1037.57
2023-05-04T08:39:11.948Z,1041.60
2023-05-04T08:41:41.709Z,1033.25
2023-05-04T08:44:10.981Z,1035.35
2023-05-04T08:46:41.229Z,1040.88
2023-05-04T08:49:08.311Z,1047.88
2023-05-04T08:51:37.814Z,1052.93
2023-05-04T08:54:10.291Z,1074.78
2023-05-04T08:56:39.992Z,1091.10
2023-05-04T08:59:08.514Z,1108.00
2023-05-04T09:01:38.096Z,1122.60
2023-05-04T09:04:05.504Z,1138.83
2023-05-04T09:06:32.265Z,1143.20
2023-05-04T09:08:58.958Z,1147.32
2023-05-04T09:11:25.595Z,1170.50
2023-05-04T09:13:52.209Z,1181.78
2023-05-04T09:16:19.909Z,1192.55
2023-05-04T09:18:46.676Z,1204.55
2023-05-04T09:21:13.372Z,1213.85
2023-05-04T09:23:51.325Z,1218.57
2023-05-04T09:26:28.247Z,1225.50
2023-05-04T09:28:54.981Z,1226.07
2023-05-04T09:31:21.713Z,1231.25
2023-05-04T09:33:48.532Z,1227.32
2023-05-04T09:36:18.131Z,1228.40
2023-05-04T09:38:45.128Z,1235.45
2023-05-04T09:41:11.886Z,1245.32
2023-05-04T09:43:43.828Z,1244.88
2023-05-04T09:46:21.029Z,1245.40
2023-05-04T09:48:52.336Z,1247.80
2023-05-04T09:51:22.332Z,1238.57
2023-05-04T09:53:50.406Z,1236.18
2023-05-04T09:56:29.702Z,1236.70
2023-05-04T09:59:00.135Z,1244.43
2023-05-04T10:01:30.153Z,1252.00
2023-05-04T10:03:57.072Z,1257.15
2023-05-04T10:06:24.586Z,1259.23
2023-05-04T10:08:51.781Z,1265.10
2023-05-04T10:11:20.299Z,1273.60
2023-05-04T10:13:49.841Z,1275.20
2023-05-04T10:16:24.191Z,1274.25
2023-05-04T10:19:20.709Z,1270.15
2023-05-04T10:22:03.369Z,1255.88
2023-05-04T10:24:43.731Z,1271.20
2023-05-04T10:27:14.024Z,1267.47
2023-05-04T10:29:42.062Z,1270.97
2023-05-04T10:32:22.494Z,1264.68
2023-05-04T10:34:51.523Z,1269.45
2023-05-04T10:37:20.100Z,1255.93
2023-05-04T10:39:53.634Z,1265.05
2023-05-04T10:42:21.221Z,1255.22
2023-05-04T10:44:53.113Z,1248.60
2023-05-04T10:47:33.947Z,1237.60
2023-05-04T10:50:08.787Z,1242.78
2023-05-04T10:52:47.535Z,1243.10
2023-05-04T10:55:15.111Z,1248.13
2023-05-04T10:57:53.761Z,1245.05
2023-05-04T11:00:21.436Z,1240.90
2023-05-04T11:02:49.521Z,1239.50
2023-05-04T11:05:19.924Z,1244.50
2023-05-04T11:07:50.650Z,1239.18
2023-05-04T11:10:22.438Z,1238.15
2023-05-04T11:12:49.224Z,1240.90
2023-05-04T11:15:15.883Z,1238.32
2023-05-04T11:17:46.271Z,1238.93
2023-05-04T11:20:23.488Z,1237.18
2023-05-04T11:22:51.092Z,1238.75
2023-05-04T11:25:26.691Z,1248.40
2023-05-04T11:27:53.962Z,1247.27
2023-05-04T11:30:21.491Z,1248.13
2023-05-04T11:32:50.063Z,1239.45
2023-05-04T11:35:19.033Z,1241.13
2023-05-04T11:37:46.827Z,1251.05
2023-05-04T11:40:19.420Z,1251.45
2023-05-04T11:42:47.155Z,1250.28
2023-05-04T11:45:17.948Z,1237.70
2023-05-04T11:47:45.753Z,1238.55
2023-05-04T11:50:14.434Z,1233.25
2023-05-04T11:52:41.715Z,1230.57
2023-05-04T11:55:13.444Z,1237.97
2023-05-04T11:57:40.477Z,1231.03
2023-05-04T12:00:08.876Z,1232.15
2023-05-04T12:02:35.970Z,1231.93
2023-05-04T12:05:03.283Z,1229.65
2023-05-04T12:07:30.140Z,1240.07
2023-05-04T12:09:56.842Z,1234.55
2023-05-04T12:12:34.145Z,1228.57
2023-05-04T12:15:00.849Z,1225.63
2023-05-04T12:17:27.529Z,1225.32
2023-05-04T12:19:56.380Z,1216.05
2023-05-04T12:22:28.453Z,1217.38
2023-05-04T12:24:57.777Z,1214.13
2023-05-04T12:27:24.810Z,1213.43
2023-05-04T12:29:51.755Z,1208.25
2023-05-04T12:32:19.226Z,1212.82
2023-05-04T12:34:46.006Z,1213.87
2023-05-04T12:37:12.683Z,1216.10
2023-05-04T12:39:39.504Z,1233.20
2023-05-04T12:42:06.203Z,1223.32
2023-05-04T12:44:33.876Z,1232.70
2023-05-04T12:47:00.926Z,1233.82
2023-05-04T12:49:27.599Z,1229.43
2023-05-04T12:51:54.230Z,1231.63
2023-05-04T12:54:21.025Z,1230.28
2023-05-04T12:56:47.695Z,1229.10
2023-05-04T12:59:14.315Z,1228.45
2023-05-04T13:01:44.198Z,1231.82
2023-05-04T13:04:10.937Z,1232.28
2023-05-04T13:06:37.765Z,1230.68
2023-05-04T13:09:05.992Z,1225.32
2023-05-04T13:11:32.859Z,1220.63
2023-05-04T13:13:59.578Z,1214.40
2023-05-04T13:16:27.996Z,1213.30
2023-05-04T13:18:55.457Z,1214.63
2023-05-04T13:21:22.271Z,1212.97
2023-05-04T13:23:49.101Z,1214.35
2023-05-04T13:26:15.782Z,1208.82
2023-05-04T13:28:42.553Z,1216.60
2023-05-04T13:31:09.760Z,1212.03
2023-05-04T13:33:39.795Z,1210.30
2023-05-04T13:36:06.910Z,1214.07
2023-05-04T13:38:33.598Z,1210.65
2023-05-04T13:41:00.377Z,1211.78
2023-05-04T13:43:28.258Z,1211.18
2023-05-04T13:45:56.959Z,1211.83
2023-05-04T13:48:25.573Z,1223.57
2023-05-04T13:50:52.555Z,1225.43
2023-05-04T13:53:19.176Z,1233.60
2023-05-04T13:55:46.011Z,1224.30
2023-05-04T13:58:12.655Z,1221.87
2023-05-04T14:00:39.365Z,1221.70
2023-05-04T14:03:06.282Z,1216.93
2023-05-04T14:05:35.267Z,1214.07
2023-05-04T14:08:02.036Z,1222.43
2023-05-04T14:10:28.633Z,1224.50
2023-05-04T14:12:55.926Z,1226.47
2023-05-04T14:15:23.144Z,1214.75
2023-05-04T14:17:50.402Z,1220.28
2023-05-04T14:20:17.260Z,1215.87
2023-05-04T14:22:44.335Z,1214.40
2023-05-04T14:25:11.205Z,1214.80
2023-05-04T14:27:37.938Z,1215.07
2023-05-04T14:30:05.205Z,1213.50
2023-05-04T14:32:31.988Z,1212.72
2023-05-04T14:35:07.765Z,1217.28
2023-05-04T14:37:39.068Z,1218.83
2023-05-04T14:40:10.603Z,1218.30
2023-05-04T14:42:38.420Z,1208.88
2023-05-04T14:45:06.821Z,1211.32
2023-05-04T14:47:34.000Z,1208.63
2023-05-04T14:50:02.218Z,1209.47
2023-05-04T14:52:29.082Z,1207.95
2023-05-04T14:54:56.067Z,1211.30
2023-05-04T14:57:22.763Z,1212.55
2023-05-04T14:59:49.432Z,1211.97
2023-05-04T15:02:17.582Z,1203.38
2023-05-04T15:04:45.729Z,1197.05
2023-05-04T15:07:14.343Z,1207.03
2023-05-04T15:09:41.014Z,1206.95
2023-05-04T15:12:08.567Z,1206.82
2023-05-04T15:14:38.221Z,1211.70
2023-05-04T15:17:05.160Z,1201.85
2023-05-04T15:19:31.769Z,1205.55
2023-05-04T15:21:58.383Z,1209.78
2023-05-04T15:24:24.977Z,1208.57
2023-05-04T15:26:51.588Z,1208.70
2023-05-04T15:29:18.174Z,1197.97
2023-05-04T15:31:44.867Z,1198.45
2023-05-04T15:34:11.694Z,1194.13
2023-05-04T15:36:38.384Z,1195.18
2023-05-04T15:39:07.338Z,1194.30
2023-05-04T15:41:34.497Z,1194.60
2023-05-04T15:44:02.500Z,1193.60
2023-05-04T15:46:29.137Z,1201.43
2023-05-04T15:48:56.051Z,1195.85
2023-05-04T15:51:22.699Z,1191.03
2023-05-04T15:53:49.315Z,1195.20
2023-05-04T15:56:16.338Z,1195.63
2023-05-04T15:58:44.372Z,1194.68
2023-05-04T16:01:14.455Z,1194.40
2023-05-04T16:03:43.024Z,1195.40
2023-05-04T16:06:09.958Z,1196.15
2023-05-04T16:08:37.142Z,1193.25
2023-05-04T16:11:04.477Z,1201.95
2023-05-04T16:13:31.280Z,1193.97
2023-05-04T16:15:58.129Z,1192.15
2023-05-04T16:18:24.852Z,1193.97
2023-05-04T16:20:51.602Z,1194.40
2023-05-04T16:23:18.331Z,1195.37
2023-05-04T16:25:45.038Z,1194.63
2023-05-04T16:28:12.270Z,1194.55
2023-05-04T16:30:39.152Z,1193.10
2023-05-04T16:33:05.907Z,1187.60
2023-05-04T16:35:32.595Z,1189.50
2023-05-04T16:37:59.459Z,1187.82
2023-05-04T16:40:28.061Z,1189.72
2023-05-04T16:42:54.738Z,1191.25
2023-05-04T16:45:21.443Z,1193.85
2023-05-04T16:47:48.154Z,1191.53
2023-05-04T16:50:14.923Z,1179.90
2023-05-04T16:52:41.780Z,1184.85
2023-05-04T16:55:11.798Z,1182.97
2023-05-04T16:57:39.191Z,1179.18
2023-05-04T17:00:07.275Z,1176.03
2023-05-04T17:02:35.367Z,1175.33
2023-05-04T17:05:04.628Z,1177.47
2023-05-04T17:07:31.315Z,1178.20
2023-05-04T17:09:57.940Z,1182.00
2023-05-04T17:12:24.757Z,1178.10
2023-05-04T17:14:51.483Z,1176.20
2023-05-04T17:17:18.482Z,1176.63
2023-05-04T17:19:46.047Z,1179.68
2023-05-04T17:22:12.649Z,1181.07
2023-05-04T17:24:39.345Z,1182.03
2023-05-04T17:27:06.029Z,1180.00
2023-05-04T17:29:32.798Z,1178.47
2023-05-04T17:31:59.443Z,1178.07
2023-05-04T17:34:26.161Z,1175.35
2023-05-04T17:36:53.782Z,1175.82
2023-05-04T17:39:20.521Z,1173.97
2023-05-04T17:41:48.653Z,1178.75
2023-05-04T17:44:18.392Z,1175.53
2023-05-04T17:46:45.192Z,1179.28
2023-05-04T17:49:11.840Z,1173.05
2023-05-04T17:51:39.782Z,1169.22
2023-05-04T17:54:06.419Z,1168.93
2023-05-04T17:56:33.058Z,1160.33
2023-05-04T17:58:59.750Z,1155.22
2023-05-04T18:01:26.796Z,1154.10
2023-05-04T18:03:53.572Z,1152.53
2023-05-04T18:06:20.256Z,1148.07
2023-05-04T18:08:46.948Z,1147.22
2023-05-04T18:11:13.556Z,1141.88
2023-05-04T18:13:40.312Z,1136.10
2023-05-04T18:16:07.047Z,1130.07
2023-05-04T18:18:33.670Z,1122.30
2023-05-04T18:21:00.797Z,1120.35
2023-05-04T18:23:27.502Z,1125.47
2023-05-04T18:25:54.115Z,1124.00
2023-05-04T18:28:20.792Z,1120.28
2023-05-04T18:30:47.591Z,1119.38
2023-05-04T18:33:14.209Z,1118.97
2023-05-04T18:35:41.170Z,1119.85
2023-05-04T18:38:07.822Z,1110.25
2023-05-04T18:40:34.468Z,1111.90
2023-05-04T18:43:01.154Z,1115.18
2023-05-04T18:45:27.913Z,1111.78
2023-05-04T18:47:54.832Z,1107.68
2023-05-04T18:50:21.574Z,1105.55
2023-05-04T18:52:50.013Z,1099.90
2023-05-04T18:55:16.716Z,1098.15
2023-05-04T18:57:44.197Z,1091.43
2023-05-04T19:00:11.692Z,1094.07
2023-05-04T19:02:38.444Z,1089.47
2023-05-04T19:05:05.552Z,1090.32
2023-05-04T19:07:32.207Z,1083.88
2023-05-04T19:09:59.008Z,1084.47
2023-05-04T19:12:25.673Z,1080.72
2023-05-04T19:14:52.901Z,1079.03
2023-05-04T19:17:19.548Z,1069.32
2023-05-04T19:19:46.395Z,1068.88
2023-05-04T19:22:15.328Z,1064.22
2023-05-04T19:24:41.935Z,1068.97
2023-05-04T19:27:09.348Z,1066.75
2023-05-04T19:29:36.034Z,1063.28
2023-05-04T19:32:12.117Z,1061.25
2023-05-04T19:34:46.866Z,1064.10
2023-05-04T19:37:13.501Z,1060.65
2023-05-04T19:39:40.130Z,1061.80
2023-05-04T19:42:06.905Z,1060.57
2023-05-04T19:44:33.540Z,1058.05
2023-05-04T19:47:00.390Z,1065.20
2023-05-04T19:49:27.279Z,1060.32
2023-05-04T19:51:53.921Z,1061.05
2023-05-04T19:54:20.562Z,1061.10
2023-05-04T19:56:47.198Z,1060.78
2023-05-04T19:59:13.935Z,1059.88
2023-05-04T20:01:40.758Z,1054.20
2023-05-04T20:04:08.379Z,1059.90
2023-05-04T20:06:35.906Z,1056.53
2023-05-04T20:09:03.857Z,1052.37
2023-05-04T20:11:30.881Z,1046.05
2023-05-04T20:13:57.785Z,1046.75
2023-05-04T20:16:24.571Z,1047.53
2023-05-04T20:18:51.241Z,1042.35
2023-05-04T20:21:17.868Z,1051.32
2023-05-04T20:23:44.602Z,1050.07
2023-05-04T20:26:11.417Z,1043.15
2023-05-04T20:28:38.574Z,1048.07
2023-05-04T20:31:05.601Z,1036.43
2023-05-04T20:33:32.233Z,1044.80
2023-05-04T20:35:59.217Z,1044.88
2023-05-04T20:38:26.031Z,1046.90
2023-05-04T20:40:52.885Z,1034.95
2023-05-04T20:43:19.734Z,1038.33
2023-05-04T20:45:46.673Z,1035.23
2023-05-04T20:48:13.417Z,1041.47
2023-05-04T20:50:40.267Z,1038.13
2023-05-04T20:53:07.376Z,1048.85
2023-05-04T20:55:34.534Z,1030.72
2023-05-04T20:58:01.186Z,1032.63
2023-05-04T21:00:27.884Z,1030.32
2023-05-04T21:02:54.753Z,1030.55
2023-05-04T21:05:21.463Z,1032.00
2023-05-04T21:07:48.080Z,1031.25
2023-05-04T21:10:15.574Z,1030.32
2023-05-04T21:12:42.238Z,1028.47
2023-05-04T21:15:10.131Z,1038.80
2023-05-04T21:17:36.753Z,1032.20
2023-05-04T21:20:04.034Z,1032.72
2023-05-04T21:22:30.895Z,1027.75
2023-05-04T21:24:57.578Z,1034.35
2023-05-04T21:27:24.233Z,1026.82
2023-05-04T21:29:51.015Z,1029.32
2023-05-04T21:32:17.624Z,1030.15
2023-05-04T21:34:44.199Z,1031.47
2023-05-04T21:37:10.795Z,1030.35
2023-05-04T21:39:37.449Z,1023.85
2023-05-04T21:42:04.230Z,1029.07
2023-05-04T21:44:33.693Z,1026.78
2023-05-04T21:47:01.977Z,1028.35
2023-05-04T21:49:28.604Z,1028.57
2023-05-04T21:51:55.234Z,1017.97
2023-05-04T21:54:23.620Z,1019.63
2023-05-04T21:56:50.287Z,1020.92
2023-05-04T21:59:16.921Z,1012.40
2023-05-04T22:01:43.858Z,1013.63
2023-05-04T22:04:10.632Z,1014.40
2023-05-04T22:06:37.627Z,1014.17
2023-05-04T22:09:05.043Z,1017.20
2023-05-04T22:11:31.845Z,1017.27
2023-05-04T22:13:58.510Z,1012.30
2023-05-04T22:16:25.321Z,1012.45
2023-05-04T22:18:52.166Z,1010.60
2023-05-04T22:21:18.785Z,1009.30
2023-05-04T22:23:45.684Z,1007.38
2023-05-04T22:26:12.461Z,1012.17
2023-05-04T22:28:39.089Z,1004.33
2023-05-04T22:31:05.741Z,1010.95
2023-05-04T22:33:32.482Z,1014.63
2023-05-04T22:35:59.088Z,1006.72
2023-05-04T22:38:25.762Z,1008.72
2023-05-04T22:40:53.165Z,1012.38
2023-05-04T22:43:19.863Z,1009.28
2023-05-04T22:45:46.636Z,1012.17
2023-05-04T22:48:14.894Z,1013.40
2023-05-04T22:50:41.690Z,1010.00
2023-05-04T22:53:09.594Z,1011.42
2023-05-04T22:55:36.251Z,1012.15
2023-05-04T22:58:03.084Z,1010.25
